Hlavní strana
METAR-TAF:

METAR-TAF

Letiště :

Huntsville, Alabama, Spojené státy americké

zeměpisná šířka: 34-38-37N, zeměpisná délka: 086-47-08W, výška: 192 m

Aktuální stav počasí

Zpráva byla vytvořena před 24 minutami, v 12:53 UTC
Bezvětří
Teplota 0°C
Vlhkost vzduchu 86%
Tlak 1018 hPa
Viditelnost: 11.3 km
Skoro jasno ve výšce 25000 ft
chuchvalce mlhy

METAR: KHSV 281253Z 00000KT 7SM BCFG FEW250 00/M02 A3007 RMK AO2 SLP183 VIS SE-S 1 I1000 T00001017

Čas: 07:17 (13:17 UTC)

Předpověď počasí

Zpráva byla vytvořena před 1 hodinou a 57 minutami, v 11:20 UTC
Předpověď platná od 28 v 12 UTC do 29 v 12 UTC
vítr z různých směrů 3 kt
Viditelnost: 10 km
Skoro jasno ve výšce 20000 ft
Dočasný
od 28 v 12 UTC do 28 v 14 UTC
Viditelnost: 3.2 km
kouřmo
Od 29 v 0800 UTC
vítr z různých směrů 3 kt
Viditelnost: 10 km
Zataženo ve výšce 2500 ft
přeháňky v blízkosti

TAF: KHSV 281120Z 2812/2912 VRB03KT P6SM FEW200 TEMPO 2812/2814 2SM BR FM290800 VRB03KT P6SM VCSH OVC025

Stav a předpovědi počasí z více než 4 000 letišť (zprávy METAR a TAF).

Červené a žluté tečky na mapě představují dostupné meteorologické stanice.

Když kurzor umístíte na tečku, zobrazí se název stanice.

Pak kliknutím zobrazíte stav a předpověď počasí.

Chcete-li změnit mapu, kliknutím na zelené tlačítko se znaménkem +mapu přiblížíte, kliknutím na zelené tlačítko se znaménkem – mapu oddálíte a kliknutím na zelené šipky přejdete na sousední mapy.


METAR-TAF: